createdAt,value
2022-09-29T00:01:50.899Z,7.72
2022-09-29T00:04:21.534Z,9.70
2022-09-29T00:06:52.432Z,7.25
2022-09-29T00:09:23.268Z,9.08
2022-09-29T00:11:56.912Z,8.13
2022-09-29T00:14:27.729Z,6.85
2022-09-29T00:16:58.512Z,7.80
2022-09-29T00:19:29.896Z,5.78
2022-09-29T00:22:00.578Z,7.25
2022-09-29T00:24:32.400Z,6.95
2022-09-29T00:27:03.709Z,5.53
2022-09-29T00:29:34.459Z,5.00
2022-09-29T00:32:05.265Z,6.10
2022-09-29T00:34:35.974Z,7.15
2022-09-29T00:37:06.690Z,4.78
2022-09-29T00:39:37.403Z,5.85
2022-09-29T00:42:09.483Z,6.53
2022-09-29T00:44:42.549Z,4.30
2022-09-29T00:47:22.039Z,4.92
2022-09-29T00:49:52.942Z,3.05
2022-09-29T00:52:26.029Z,4.10
2022-09-29T00:54:59.224Z,4.05
2022-09-29T00:57:32.332Z,5.42
2022-09-29T01:00:05.528Z,4.65
2022-09-29T01:02:38.472Z,2.87
2022-09-29T01:05:11.602Z,5.22
2022-09-29T01:07:44.968Z,4.15
2022-09-29T01:10:18.266Z,3.60
2022-09-29T01:12:50.752Z,6.28
2022-09-29T01:15:24.253Z,3.37
2022-09-29T01:17:54.929Z,3.25
2022-09-29T01:20:27.886Z,4.72
2022-09-29T01:23:06.175Z,3.40
2022-09-29T01:25:38.855Z,3.72
2022-09-29T01:28:21.319Z,4.50
2022-09-29T01:30:52.970Z,3.52
2022-09-29T01:33:26.237Z,4.47
2022-09-29T01:35:59.246Z,2.98
2022-09-29T01:38:32.400Z,3.52
2022-09-29T01:41:04.120Z,3.80
2022-09-29T01:43:37.343Z,3.85
2022-09-29T01:46:10.491Z,5.78
2022-09-29T01:48:43.515Z,2.83
2022-09-29T01:51:16.646Z,4.85
2022-09-29T01:53:49.696Z,5.60
2022-09-29T01:56:22.831Z,4.40
2022-09-29T01:58:52.700Z,3.17
2022-09-29T02:01:26.510Z,2.42
2022-09-29T02:03:59.530Z,3.60
2022-09-29T02:06:32.588Z,3.02
2022-09-29T02:09:05.056Z,6.10
2022-09-29T02:11:37.627Z,3.60
2022-09-29T02:14:10.651Z,2.33
2022-09-29T02:16:43.759Z,5.28
2022-09-29T02:19:16.891Z,2.70
2022-09-29T02:21:47.780Z,3.08
2022-09-29T02:24:18.534Z,2.87
2022-09-29T02:26:49.623Z,2.65
2022-09-29T02:29:21.351Z,3.15
2022-09-29T02:31:52.552Z,3.72
2022-09-29T02:34:27.947Z,3.20
2022-09-29T02:36:59.876Z,2.27
2022-09-29T02:39:34.837Z,5.70
2022-09-29T02:42:07.621Z,4.42
2022-09-29T02:44:40.763Z,5.80
2022-09-29T02:47:12.209Z,3.92
2022-09-29T02:49:45.287Z,2.15
2022-09-29T02:52:18.368Z,5.20
2022-09-29T02:54:52.021Z,4.00
2022-09-29T02:57:29.455Z,2.12
2022-09-29T03:00:01.878Z,3.02
2022-09-29T03:02:32.641Z,1.72
2022-09-29T03:05:03.853Z,4.35
2022-09-29T03:07:34.434Z,1.77
2022-09-29T03:10:05.072Z,3.25
2022-09-29T03:12:36.162Z,5.42
2022-09-29T03:15:08.192Z,3.47
2022-09-29T03:17:41.074Z,2.90
2022-09-29T03:20:12.160Z,3.17
2022-09-29T03:22:56.049Z,3.70
2022-09-29T03:25:18.227Z,2.90
2022-09-29T03:27:48.908Z,2.85
2022-09-29T03:30:20.720Z,3.70
2022-09-29T03:32:51.619Z,6.12
2022-09-29T03:35:25.143Z,3.02
2022-09-29T03:37:56.598Z,2.55
2022-09-29T03:40:28.576Z,2.37
2022-09-29T03:43:00.665Z,3.92
2022-09-29T03:45:32.651Z,2.98
2022-09-29T03:48:06.298Z,3.17
2022-09-29T03:50:36.995Z,3.72
2022-09-29T03:53:08.815Z,2.30
2022-09-29T03:55:39.391Z,2.42
2022-09-29T03:58:10.236Z,2.75
2022-09-29T04:00:41.092Z,1.75
2022-09-29T04:03:11.864Z,5.03
2022-09-29T04:05:43.101Z,3.67
2022-09-29T04:08:13.869Z,2.25
2022-09-29T04:10:45.242Z,2.17
2022-09-29T04:13:19.847Z,1.65
2022-09-29T04:15:47.965Z,4.25
2022-09-29T04:18:18.897Z,2.02
2022-09-29T04:20:49.704Z,2.20
2022-09-29T04:23:20.323Z,4.78
2022-09-29T04:25:50.935Z,3.92
2022-09-29T04:28:21.404Z,3.98
2022-09-29T04:30:52.235Z,2.67
2022-09-29T04:33:23.152Z,2.27
2022-09-29T04:35:54.033Z,3.02
2022-09-29T04:38:24.957Z,1.77
2022-09-29T04:40:55.742Z,2.00
2022-09-29T04:43:26.937Z,2.87
2022-09-29T04:46:00.088Z,2.75
2022-09-29T04:48:34.978Z,2.30
2022-09-29T04:51:03.457Z,3.90
2022-09-29T04:53:34.363Z,2.58
2022-09-29T04:56:07.611Z,2.12
2022-09-29T04:58:38.912Z,3.22
2022-09-29T05:01:11.874Z,3.87
2022-09-29T05:03:43.474Z,3.95
2022-09-29T05:06:14.396Z,2.12
2022-09-29T05:08:45.127Z,4.78
2022-09-29T05:11:16.050Z,4.70
2022-09-29T05:13:46.734Z,5.00
2022-09-29T05:16:17.299Z,4.83
2022-09-29T05:18:48.163Z,3.85
2022-09-29T05:21:33.967Z,3.72
2022-09-29T05:23:53.358Z,3.05
2022-09-29T05:26:24.057Z,3.92
2022-09-29T05:28:54.872Z,3.72
2022-09-29T05:31:25.765Z,2.70
2022-09-29T05:33:58.455Z,1.85
2022-09-29T05:36:29.150Z,2.55
2022-09-29T05:39:00.161Z,2.60
2022-09-29T05:41:30.944Z,3.05
2022-09-29T05:44:02.747Z,2.58
2022-09-29T05:46:33.647Z,2.17
2022-09-29T05:49:04.580Z,2.08
2022-09-29T05:51:35.207Z,2.72
2022-09-29T05:54:06.032Z,3.15
2022-09-29T05:56:36.837Z,3.25
2022-09-29T05:59:07.512Z,1.80
2022-09-29T06:01:38.462Z,1.98
2022-09-29T06:04:09.341Z,2.70
2022-09-29T06:06:44.074Z,2.10
2022-09-29T06:09:16.029Z,3.08
2022-09-29T06:11:46.987Z,2.62
2022-09-29T06:14:17.852Z,3.17
2022-09-29T06:16:48.518Z,1.67
2022-09-29T06:19:20.896Z,1.50
2022-09-29T06:21:51.628Z,2.95
2022-09-29T06:24:22.461Z,2.17
2022-09-29T06:26:53.066Z,3.33
2022-09-29T06:29:23.884Z,1.40
2022-09-29T06:31:55.427Z,1.70
2022-09-29T06:34:25.984Z,2.77
2022-09-29T06:36:58.064Z,1.57
2022-09-29T06:39:28.972Z,2.08
2022-09-29T06:41:59.771Z,3.55
2022-09-29T06:44:33.713Z,2.50
2022-09-29T06:47:16.627Z,1.70
2022-09-29T06:49:53.528Z,1.52
2022-09-29T06:52:20.930Z,7.10
2022-09-29T06:54:50.774Z,1.52
2022-09-29T06:57:24.862Z,1.85
2022-09-29T06:59:57.464Z,1.32
2022-09-29T07:02:32.203Z,1.10
2022-09-29T07:05:05.788Z,2.72
2022-09-29T07:07:38.885Z,1.22
2022-09-29T07:10:12.958Z,3.17
2022-09-29T07:12:48.321Z,1.17
2022-09-29T07:15:29.843Z,1.17
2022-09-29T07:18:02.933Z,2.62
2022-09-29T07:20:38.563Z,2.95
2022-09-29T07:23:16.815Z,2.45
2022-09-29T07:25:52.254Z,1.45
2022-09-29T07:28:24.695Z,3.67
2022-09-29T07:33:58.299Z,1.10
2022-09-29T07:36:31.840Z,1.27
2022-09-29T07:39:05.048Z,1.50
2022-09-29T07:41:41.599Z,1.60
2022-09-29T07:44:14.672Z,2.55
2022-09-29T07:46:50.691Z,3.05
2022-09-29T07:49:24.147Z,1.82
2022-09-29T07:52:09.234Z,2.27
2022-09-29T07:54:40.526Z,2.80
2022-09-29T07:57:17.248Z,1.32
2022-09-29T07:59:53.295Z,2.20
2022-09-29T08:02:24.311Z,3.33
2022-09-29T08:05:00.678Z,1.60
2022-09-29T08:07:28.618Z,2.60
2022-09-29T08:10:14.372Z,2.92
2022-09-29T08:12:42.769Z,3.35
2022-09-29T08:15:12.533Z,1.60
2022-09-29T08:17:45.458Z,2.23
2022-09-29T08:20:20.596Z,1.60
2022-09-29T08:22:56.364Z,2.95
2022-09-29T08:25:27.934Z,1.30
2022-09-29T08:28:03.168Z,3.08
2022-09-29T08:30:41.598Z,1.25
2022-09-29T08:33:13.461Z,1.85
2022-09-29T08:35:47.356Z,2.50
2022-09-29T08:38:18.707Z,6.15
2022-09-29T08:41:05.257Z,1.55
2022-09-29T08:43:35.041Z,1.92
2022-09-29T08:46:06.924Z,5.67
2022-09-29T08:48:50.799Z,3.17
2022-09-29T08:51:17.582Z,3.75
2022-09-29T08:54:01.859Z,2.80
2022-09-29T08:56:24.075Z,1.70
2022-09-29T08:58:55.299Z,1.57
2022-09-29T09:01:28.430Z,1.60
2022-09-29T09:04:01.760Z,1.10
2022-09-29T09:06:34.808Z,1.17
2022-09-29T09:09:06.378Z,1.00
2022-09-29T09:11:39.887Z,3.22
2022-09-29T09:14:15.221Z,1.42
2022-09-29T09:16:48.310Z,2.75
2022-09-29T09:19:21.599Z,0.93
2022-09-29T09:21:55.482Z,1.57
2022-09-29T09:24:28.717Z,1.80
2022-09-29T09:27:01.219Z,1.20
2022-09-29T09:29:37.404Z,1.05
2022-09-29T09:32:06.462Z,1.40
2022-09-29T09:34:44.406Z,1.45
2022-09-29T09:37:12.983Z,1.50
2022-09-29T09:39:46.472Z,1.57
2022-09-29T09:42:19.576Z,1.90
2022-09-29T09:44:52.727Z,1.20
2022-09-29T09:47:24.234Z,2.33
2022-09-29T09:49:57.348Z,2.52
2022-09-29T09:52:30.904Z,3.77
2022-09-29T09:55:04.261Z,1.90
2022-09-29T09:57:36.049Z,3.77
2022-09-29T10:00:08.940Z,2.58
2022-09-29T10:02:42.060Z,4.03
2022-09-29T10:05:15.359Z,1.75
2022-09-29T10:07:47.495Z,1.35
2022-09-29T10:10:20.658Z,2.22
2022-09-29T10:12:59.053Z,2.27
2022-09-29T10:15:28.347Z,1.75
2022-09-29T10:18:01.332Z,1.42
2022-09-29T10:20:35.114Z,2.75
2022-09-29T10:23:08.155Z,1.72
2022-09-29T10:25:41.255Z,3.08
2022-09-29T10:28:14.568Z,2.00
2022-09-29T10:30:45.503Z,1.80
2022-09-29T10:33:18.646Z,1.77
2022-09-29T10:35:52.820Z,2.05
2022-09-29T10:38:25.934Z,2.35
2022-09-29T10:40:59.957Z,4.80
2022-09-29T10:43:33.411Z,3.58
2022-09-29T10:46:04.164Z,2.62
2022-09-29T10:48:34.997Z,2.60
2022-09-29T10:51:07.413Z,3.83
2022-09-29T10:53:40.294Z,3.33
2022-09-29T10:56:13.342Z,2.20
2022-09-29T10:59:00.015Z,1.70
2022-09-29T11:01:20.859Z,1.95
2022-09-29T11:03:54.687Z,1.80
2022-09-29T11:06:28.315Z,2.65
2022-09-29T11:09:00.190Z,2.35
2022-09-29T11:11:33.452Z,1.50
2022-09-29T11:14:04.656Z,3.37
2022-09-29T11:16:38.356Z,5.65
2022-09-29T11:19:12.153Z,3.02
2022-09-29T11:21:45.230Z,2.33
2022-09-29T11:24:18.470Z,5.50
2022-09-29T11:26:51.960Z,1.85
2022-09-29T11:29:43.442Z,3.52
2022-09-29T11:32:16.833Z,2.08
2022-09-29T11:34:48.412Z,2.55
2022-09-29T11:37:21.623Z,2.25
2022-09-29T11:39:55.205Z,4.03
2022-09-29T11:42:26.787Z,2.15
2022-09-29T11:44:59.999Z,2.27
2022-09-29T11:47:33.496Z,4.78
2022-09-29T11:50:04.964Z,4.30
2022-09-29T11:52:39.187Z,3.22
2022-09-29T11:55:12.323Z,2.47
2022-09-29T11:57:45.483Z,2.52
2022-09-29T12:00:18.572Z,2.83
2022-09-29T12:02:51.676Z,2.52
2022-09-29T12:05:24.777Z,4.33
2022-09-29T12:07:59.100Z,2.45
2022-09-29T12:10:32.127Z,2.85
2022-09-29T12:13:05.355Z,4.30
2022-09-29T12:15:40.127Z,2.83
2022-09-29T12:18:11.341Z,5.42
2022-09-29T12:20:44.469Z,5.33
2022-09-29T12:23:17.493Z,3.33
2022-09-29T12:25:51.470Z,6.70
2022-09-29T12:28:24.609Z,3.95
2022-09-29T12:30:57.727Z,2.35
2022-09-29T12:33:29.280Z,3.92
2022-09-29T12:36:02.363Z,3.55
2022-09-29T12:38:36.298Z,2.42
2022-09-29T12:41:09.664Z,2.35
2022-09-29T12:43:42.913Z,2.40
2022-09-29T12:46:19.269Z,3.90
2022-09-29T12:48:53.516Z,2.27
2022-09-29T12:51:24.952Z,2.40
2022-09-29T12:53:59.343Z,3.83
2022-09-29T12:56:33.432Z,3.08
2022-09-29T12:59:05.935Z,2.75
2022-09-29T13:01:39.099Z,2.62
2022-09-29T13:04:15.364Z,2.42
2022-09-29T13:06:46.616Z,2.20
2022-09-29T13:09:19.970Z,2.10
2022-09-29T13:11:53.423Z,2.72
2022-09-29T13:14:26.486Z,3.08
2022-09-29T13:16:58.030Z,2.60
2022-09-29T13:19:55.651Z,2.75
2022-09-29T13:22:08.220Z,4.08
2022-09-29T13:24:43.447Z,2.65
2022-09-29T13:27:12.468Z,2.90
2022-09-29T13:29:46.830Z,3.67
2022-09-29T13:32:18.849Z,3.92
2022-09-29T13:34:51.998Z,5.28
2022-09-29T13:37:25.015Z,3.67
2022-09-29T13:40:01.425Z,4.15
2022-09-29T13:42:32.732Z,3.47
2022-09-29T13:45:05.815Z,3.33
2022-09-29T13:47:37.145Z,3.15
2022-09-29T13:50:11.702Z,3.72
2022-09-29T13:52:44.973Z,3.15
2022-09-29T13:55:18.140Z,3.52
2022-09-29T13:57:51.338Z,2.77
2022-09-29T14:00:23.063Z,2.62
2022-09-29T14:02:56.119Z,2.77
2022-09-29T14:05:26.069Z,2.00
2022-09-29T14:07:58.482Z,3.25
2022-09-29T14:10:31.792Z,4.00
2022-09-29T14:13:05.043Z,2.10
2022-09-29T14:15:38.138Z,1.62
2022-09-29T14:18:11.394Z,1.85
2022-09-29T14:20:44.732Z,1.52
2022-09-29T14:23:16.032Z,2.60
2022-09-29T14:25:46.136Z,2.22
2022-09-29T14:28:19.817Z,2.08
2022-09-29T14:30:53.005Z,1.82
2022-09-29T14:33:26.116Z,3.60
2022-09-29T14:35:57.487Z,2.72
2022-09-29T14:38:30.547Z,2.15
2022-09-29T14:41:05.320Z,1.87
2022-09-29T14:43:42.877Z,4.80
2022-09-29T14:46:17.042Z,3.05
2022-09-29T14:48:51.779Z,1.32
2022-09-29T14:51:29.199Z,3.62
2022-09-29T14:54:01.602Z,7.83
2022-09-29T14:56:36.119Z,1.85
2022-09-29T14:59:10.580Z,1.77
2022-09-29T15:01:54.299Z,1.90
2022-09-29T15:04:45.123Z,1.50
2022-09-29T15:07:18.665Z,1.52
2022-09-29T15:09:52.698Z,1.57
2022-09-29T15:12:27.338Z,1.15
2022-09-29T15:14:59.193Z,1.17
2022-09-29T15:17:32.872Z,1.30
2022-09-29T15:20:05.697Z,1.50
2022-09-29T15:22:38.990Z,2.62
2022-09-29T15:25:12.848Z,1.85
2022-09-29T15:27:43.800Z,2.22
2022-09-29T15:30:19.910Z,1.80
2022-09-29T15:32:51.404Z,2.10
2022-09-29T15:35:24.773Z,1.82
2022-09-29T15:37:57.945Z,2.37
2022-09-29T15:40:31.020Z,2.58
2022-09-29T15:44:22.002Z,2.00
2022-09-29T15:49:33.802Z,1.80
2022-09-29T15:52:05.514Z,2.72
2022-09-29T15:54:34.461Z,2.67
2022-09-29T15:57:07.412Z,2.05
2022-09-29T15:59:41.855Z,2.33
2022-09-29T16:05:15.276Z,2.42
2022-09-29T16:07:49.039Z,3.17
2022-09-29T16:10:23.613Z,2.60
2022-09-29T16:12:56.823Z,2.27
2022-09-29T16:15:28.806Z,2.85
2022-09-29T16:18:18.191Z,2.77
2022-09-29T16:20:50.672Z,4.42
2022-09-29T16:26:16.175Z,2.42
2022-09-29T16:28:51.067Z,4.03
2022-09-29T16:31:24.975Z,3.95
2022-09-29T16:33:58.282Z,3.52
2022-09-29T16:36:35.360Z,2.20
2022-09-29T16:39:07.580Z,1.65
2022-09-29T16:41:45.737Z,1.80
2022-09-29T16:44:20.324Z,2.08
2022-09-29T16:46:53.335Z,2.20
2022-09-29T16:52:28.059Z,2.45
2022-09-29T16:55:14.570Z,2.87
2022-09-29T17:03:29.244Z,2.87
2022-09-29T17:06:04.588Z,3.22
2022-09-29T17:08:38.705Z,2.98
2022-09-29T17:11:09.267Z,4.90
2022-09-29T17:16:30.753Z,5.17
2022-09-29T17:19:04.052Z,4.42
2022-09-29T17:21:39.350Z,2.83
2022-09-29T17:24:21.313Z,3.77
2022-09-29T17:26:50.803Z,3.05
2022-09-29T17:29:21.472Z,2.87
2022-09-29T17:32:10.482Z,2.60
2022-09-29T17:34:29.537Z,3.33
2022-09-29T17:37:03.021Z,2.12
2022-09-29T17:39:33.634Z,3.20
2022-09-29T17:42:04.532Z,1.82
2022-09-29T17:44:35.232Z,5.90
2022-09-29T17:47:24.118Z,2.37
2022-09-29T17:49:39.848Z,2.40
2022-09-29T17:52:15.107Z,4.25
2022-09-29T17:54:47.039Z,2.17
2022-09-29T17:57:20.528Z,3.17
2022-09-29T17:59:51.202Z,2.92
2022-09-29T18:02:21.914Z,5.83
2022-09-29T18:04:52.623Z,3.33
2022-09-29T18:07:23.220Z,1.77
2022-09-29T18:09:53.836Z,2.83
2022-09-29T18:12:25.676Z,2.15
2022-09-29T18:14:56.195Z,2.72
2022-09-29T18:17:26.734Z,2.70
2022-09-29T18:19:57.220Z,3.47
2022-09-29T18:22:27.850Z,2.58
2022-09-29T18:24:58.595Z,2.50
2022-09-29T18:27:29.358Z,3.40
2022-09-29T18:30:00.141Z,1.98
2022-09-29T18:32:30.889Z,1.57
2022-09-29T18:35:06.700Z,1.90
2022-09-29T18:37:37.398Z,1.90
2022-09-29T18:40:08.757Z,2.12
2022-09-29T18:42:42.313Z,1.40
2022-09-29T18:45:15.804Z,1.98
2022-09-29T18:47:47.300Z,1.87
2022-09-29T18:50:21.336Z,3.02
2022-09-29T18:52:53.311Z,1.70
2022-09-29T18:55:26.747Z,1.27
2022-09-29T18:57:59.632Z,1.80
2022-09-29T19:00:32.472Z,2.80
2022-09-29T19:03:04.852Z,1.62
2022-09-29T19:05:37.075Z,2.15
2022-09-29T19:08:08.975Z,1.50
2022-09-29T19:10:41.280Z,3.37
2022-09-29T19:13:15.514Z,1.27
2022-09-29T19:15:47.495Z,2.95
2022-09-29T19:18:22.255Z,1.95
2022-09-29T19:20:55.660Z,2.27
2022-09-29T19:23:28.121Z,5.70
2022-09-29T19:26:00.511Z,2.30
2022-09-29T19:28:31.130Z,1.55
2022-09-29T19:31:04.212Z,1.80
2022-09-29T19:33:35.310Z,3.47
2022-09-29T19:36:09.455Z,2.25
2022-09-29T19:38:41.142Z,3.00
2022-09-29T19:41:14.134Z,2.27
2022-09-29T19:43:44.854Z,4.28
2022-09-29T19:46:16.914Z,1.57
2022-09-29T19:48:48.309Z,2.35
2022-09-29T19:51:21.166Z,2.98
2022-09-29T19:53:53.352Z,3.17
2022-09-29T19:56:23.873Z,2.08
2022-09-29T19:58:54.852Z,2.17
2022-09-29T20:01:26.925Z,1.80
2022-09-29T20:03:57.599Z,4.53
2022-09-29T20:06:28.192Z,4.80
2022-09-29T20:08:59.118Z,6.67
2022-09-29T20:11:30.361Z,6.35
2022-09-29T20:14:03.104Z,8.10
2022-09-29T20:16:37.584Z,8.80
2022-09-29T20:19:09.575Z,10.10
2022-09-29T20:21:41.714Z,10.30
2022-09-29T20:24:15.436Z,10.00
2022-09-29T20:26:48.431Z,11.10
2022-09-29T20:29:21.911Z,12.63
2022-09-29T20:31:54.207Z,16.42
2022-09-29T20:34:25.104Z,13.58
2022-09-29T20:36:55.704Z,14.38
2022-09-29T20:39:26.850Z,16.37
2022-09-29T20:41:59.288Z,16.05
2022-09-29T20:44:29.862Z,16.82
2022-09-29T20:47:01.204Z,13.32
2022-09-29T20:49:32.207Z,14.65
2022-09-29T20:52:03.105Z,14.50
2022-09-29T20:54:34.206Z,15.35
2022-09-29T20:57:04.813Z,16.85
2022-09-29T20:59:35.824Z,15.00
2022-09-29T21:02:07.321Z,12.10
2022-09-29T21:04:37.953Z,17.98
2022-09-29T21:07:10.186Z,12.20
2022-09-29T21:09:40.835Z,10.93
2022-09-29T21:12:11.431Z,11.35
2022-09-29T21:14:42.613Z,11.12
2022-09-29T21:17:13.349Z,11.63
2022-09-29T21:19:43.975Z,11.25
2022-09-29T21:22:14.646Z,9.48
2022-09-29T21:24:45.563Z,10.23
2022-09-29T21:27:16.397Z,10.70
2022-09-29T21:29:47.131Z,9.78
2022-09-29T21:32:19.195Z,10.15
2022-09-29T21:34:50.940Z,9.68
2022-09-29T21:37:21.999Z,9.78
2022-09-29T21:39:53.325Z,10.08
2022-09-29T21:42:24.197Z,10.38
2022-09-29T21:44:57.846Z,10.90
2022-09-29T21:47:33.980Z,9.48
2022-09-29T21:50:04.784Z,10.13
2022-09-29T21:52:36.952Z,10.80
2022-09-29T21:55:08.088Z,10.38
2022-09-29T21:57:40.579Z,9.75
2022-09-29T22:00:11.812Z,10.30
2022-09-29T22:02:42.735Z,12.53
2022-09-29T22:05:13.903Z,10.40
2022-09-29T22:07:44.647Z,10.93
2022-09-29T22:10:15.466Z,10.18
2022-09-29T22:12:46.510Z,10.90
2022-09-29T22:15:17.469Z,11.10
2022-09-29T22:17:48.182Z,12.30
2022-09-29T22:20:18.866Z,11.03
2022-09-29T22:22:49.724Z,14.53
2022-09-29T22:25:20.587Z,11.12
2022-09-29T22:27:51.631Z,12.33
2022-09-29T22:30:23.798Z,11.68
2022-09-29T22:32:54.970Z,13.28
2022-09-29T22:35:30.270Z,11.57
2022-09-29T22:38:01.223Z,11.38
2022-09-29T22:40:33.698Z,13.30
2022-09-29T22:43:04.505Z,12.25
2022-09-29T22:45:36.342Z,17.90
2022-09-29T22:48:07.131Z,13.35
2022-09-29T22:50:38.113Z,12.88
2022-09-29T22:53:08.829Z,15.18
2022-09-29T22:55:41.493Z,14.85
2022-09-29T22:58:15.298Z,12.53
2022-09-29T23:00:46.173Z,12.10
2022-09-29T23:03:17.785Z,14.53
2022-09-29T23:05:48.517Z,13.62
2022-09-29T23:08:19.933Z,16.77
2022-09-29T23:10:50.775Z,12.60
2022-09-29T23:13:22.576Z,13.78
2022-09-29T23:15:53.705Z,14.10
2022-09-29T23:18:24.486Z,13.62
2022-09-29T23:20:57.763Z,13.25
2022-09-29T23:23:28.730Z,13.13
2022-09-29T23:25:59.719Z,13.45
2022-09-29T23:28:30.864Z,13.70
2022-09-29T23:31:04.183Z,12.63
2022-09-29T23:33:35.502Z,14.18
2022-09-29T23:36:08.908Z,14.78
2022-09-29T23:38:42.737Z,16.32
2022-09-29T23:41:14.978Z,13.70
2022-09-29T23:43:45.813Z,12.58
2022-09-29T23:46:16.765Z,12.55
2022-09-29T23:48:47.534Z,13.30
2022-09-29T23:51:19.578Z,13.25
2022-09-29T23:53:50.797Z,13.95
2022-09-29T23:56:22.790Z,15.20
2022-09-29T23:58:53.585Z,11.97
